Time,TemperatureF,DewpointF,PressureIn,WindDirection,WindDirectionDegrees,WindSpeedMPH,WindSpeedGustMPH,Humidity,HourlyPrecipIn,Conditions,Clouds,dailyrainin,SoftwareType,DateUTC
2013-01-09 00:05:00,49.8,48.4,29.70,SW,218,5.0,5.0,95,0.11,,,0.57,Wunderground v.1.15,2013-01-09 08:05:00,
2013-01-09 00:15:00,49.7,48.3,29.70,South,185,4.0,5.0,95,0.07,,,0.02,Wunderground v.1.15,2013-01-09 08:15:00,
2013-01-09 00:25:00,49.7,48.3,29.70,NNW,344,4.0,5.0,95,0.06,,,0.03,Wunderground v.1.15,2013-01-09 08:25:00,
2013-01-09 00:35:00,49.7,48.3,29.70,South,175,4.0,15.0,95,0.10,,,0.04,Wunderground v.1.15,2013-01-09 08:35:00,
2013-01-09 00:45:00,49.6,48.2,29.70,South,185,4.0,6.0,95,0.08,,,0.06,Wunderground v.1.15,2013-01-09 08:45:00,
2013-01-09 00:55:00,49.6,48.2,29.71,South,180,3.0,15.0,95,0.08,,,0.07,Wunderground v.1.15,2013-01-09 08:55:00,
2013-01-09 01:05:00,49.5,48.1,29.71,SSE,149,4.0,6.0,95,0.16,,,0.09,Wunderground v.1.15,2013-01-09 09:05:00,
2013-01-09 01:15:00,49.4,48.0,29.70,SSE,158,4.0,7.0,95,0.10,,,0.11,Wunderground v.1.15,2013-01-09 09:15:00,
2013-01-09 01:25:00,49.4,48.0,29.70,SSW,204,4.0,9.0,95,0.09,,,0.12,Wunderground v.1.15,2013-01-09 09:25:00,
2013-01-09 01:35:00,49.3,47.9,29.70,SSW,204,3.0,11.0,95,0.05,,,0.13,Wunderground v.1.15,2013-01-09 09:35:00,
2013-01-09 01:40:00,49.3,47.9,29.70,SSE,167,3.0,3.0,95,0.05,,,0.13,Wunderground v.1.15,2013-01-09 09:40:00,
2013-01-09 01:45:00,49.3,47.9,29.70,SSE,151,3.0,4.0,95,0.04,,,0.13,Wunderground v.1.15,2013-01-09 09:45:00,
2013-01-09 01:50:00,49.2,47.8,29.70,South,175,3.0,11.0,95,0.00,,,0.14,Wunderground v.1.15,2013-01-09 09:50:00,
2013-01-09 01:55:00,49.2,48.1,29.72,SSE,154,3.0,11.0,96,1.19,,,0.17,Wunderground v.1.15,2013-01-09 09:55:00,
2013-01-09 02:05:00,48.2,46.3,29.71,NW,312,1.0,4.0,93,0.08,,,0.19,Wunderground v.1.15,2013-01-09 10:05:00,
2013-01-09 02:10:00,47.6,45.7,29.71,South,185,1.0,1.0,93,0.07,,,0.20,Wunderground v.1.15,2013-01-09 10:10:00,
2013-01-09 02:15:00,47.2,45.3,29.71,South,185,1.0,1.0,93,0.07,,,0.20,Wunderground v.1.15,2013-01-09 10:15:00,
2013-01-09 02:25:00,46.6,45.0,29.71,SSE,164,1.0,5.0,94,0.06,,,0.21,Wunderground v.1.15,2013-01-09 10:25:00,
2013-01-09 02:35:00,46.2,44.6,29.72,ESE,112,1.0,11.0,94,0.06,,,0.22,Wunderground v.1.15,2013-01-09 10:35:00,
2013-01-09 02:45:00,46.0,44.4,29.71,South,175,1.0,11.0,94,0.12,,,0.24,Wunderground v.1.15,2013-01-09 10:45:00,
2013-01-09 02:55:00,45.7,44.1,29.71,SSW,193,1.0,11.0,94,0.06,,,0.25,Wunderground v.1.15,2013-01-09 10:55:00,
2013-01-09 03:05:00,45.5,43.9,29.70,South,185,1.0,1.0,94,0.05,,,0.25,Wunderground v.1.15,2013-01-09 11:05:00,
2013-01-09 03:15:00,45.2,43.6,29.70,SSE,162,0.0,1.0,94,0.00,,,0.25,Wunderground v.1.15,2013-01-09 11:15:00,
2013-01-09 03:25:00,45.0,43.4,29.69,ENE,76,1.0,1.0,94,0.00,,,0.25,Wunderground v.1.15,2013-01-09 11:25:00,
2013-01-09 03:35:00,44.9,43.3,29.69,South,185,1.0,8.0,94,0.00,,,0.26,Wunderground v.1.15,2013-01-09 11:35:00,
2013-01-09 03:45:00,44.6,43.0,29.68,WNW,290,0.0,8.0,94,0.15,,,0.28,Wunderground v.1.15,2013-01-09 11:45:00,
2013-01-09 03:55:00,44.3,43.0,29.68,SW,224,0.0,8.0,95,0.06,,,0.29,Wunderground v.1.15,2013-01-09 11:55:00,
2013-01-09 04:05:00,44.0,42.7,29.68,South,169,1.0,1.0,95,0.05,,,0.30,Wunderground v.1.15,2013-01-09 12:05:00,
2013-01-09 04:15:00,43.8,42.5,29.67,SSE,167,0.0,0.0,95,0.09,,,0.31,Wunderground v.1.15,2013-01-09 12:15:00,
2013-01-09 04:25:00,43.6,42.3,29.67,NW,305,0.0,0.0,95,0.13,,,0.34,Wunderground v.1.15,2013-01-09 12:25:00,
2013-01-09 04:35:00,43.3,42.0,29.67,South,180,0.0,1.0,95,0.06,,,0.34,Wunderground v.1.15,2013-01-09 12:35:00,
2013-01-09 04:45:00,43.2,41.9,29.67,SSW,198,0.0,5.0,95,0.04,,,0.35,Wunderground v.1.15,2013-01-09 12:45:00,
2013-01-09 04:55:00,43.2,42.1,29.65,South,170,0.0,5.0,96,0.07,,,0.36,Wunderground v.1.15,2013-01-09 12:55:00,
2013-01-09 05:00:00,43.2,42.1,29.65,WNW,299,0.0,0.0,96,0.06,,,0.36,Wunderground v.1.15,2013-01-09 13:00:00,
2013-01-09 05:05:00,43.1,42.0,29.65,SSW,193,0.0,1.0,96,0.05,,,0.37,Wunderground v.1.15,2013-01-09 13:05:00,
2013-01-09 05:15:00,43.0,41.9,29.65,South,185,0.0,0.0,96,0.07,,,0.38,Wunderground v.1.15,2013-01-09 13:15:00,
2013-01-09 05:25:00,42.9,41.8,29.65,SSW,201,0.0,0.0,96,0.14,,,0.40,Wunderground v.1.15,2013-01-09 13:25:00,
2013-01-09 05:35:00,42.9,41.8,29.65,SW,220,0.0,4.0,96,0.08,,,0.42,Wunderground v.1.15,2013-01-09 13:35:00,
2013-01-09 05:45:00,42.8,41.7,29.65,SSW,193,0.0,4.0,96,0.08,,,0.43,Wunderground v.1.15,2013-01-09 13:45:00,
2013-01-09 05:55:00,42.7,41.6,29.65,South,180,0.0,4.0,96,0.21,,,0.47,Wunderground v.1.15,2013-01-09 13:55:00,
2013-01-09 06:05:00,42.7,41.6,29.65,South,175,0.0,0.0,96,0.17,,,0.49,Wunderground v.1.15,2013-01-09 14:05:00,
2013-01-09 06:15:00,42.7,41.6,29.66,South,185,0.0,0.0,96,0.13,,,0.52,Wunderground v.1.15,2013-01-09 14:15:00,
2013-01-09 06:20:00,42.6,41.5,29.66,South,169,0.0,0.0,96,0.14,,,0.53,Wunderground v.1.15,2013-01-09 14:20:00,
2013-01-09 06:25:00,42.5,41.4,29.66,SE,127,0.0,0.0,96,0.16,,,0.54,Wunderground v.1.15,2013-01-09 14:25:00,
2013-01-09 06:35:00,42.4,41.3,29.66,South,185,0.0,2.0,96,0.13,,,0.56,Wunderground v.1.15,2013-01-09 14:35:00,
2013-01-09 06:45:00,42.3,41.2,29.67,South,175,0.0,3.0,96,0.14,,,0.59,Wunderground v.1.15,2013-01-09 14:45:00,
2013-01-09 06:55:00,42.2,41.1,29.68,NW,307,0.0,3.0,96,0.10,,,0.60,Wunderground v.1.15,2013-01-09 14:55:00,
2013-01-09 07:05:00,42.0,40.9,29.67,South,185,0.0,1.0,96,0.12,,,0.62,Wunderground v.1.15,2013-01-09 15:05:00,
2013-01-09 07:15:00,41.7,40.6,29.67,SSE,157,0.0,0.0,96,0.17,,,0.65,Wunderground v.1.15,2013-01-09 15:15:00,
2013-01-09 07:25:00,41.5,40.4,29.67,SW,222,1.0,5.0,96,0.10,,,0.67,Wunderground v.1.15,2013-01-09 15:25:00,
2013-01-09 07:35:00,41.5,40.4,29.68,South,175,0.0,4.0,96,0.06,,,0.68,Wunderground v.1.15,2013-01-09 15:35:00,
2013-01-09 07:45:00,41.5,40.4,29.69,SW,222,0.0,4.0,96,0.05,,,0.69,Wunderground v.1.15,2013-01-09 15:45:00,
2013-01-09 07:55:00,41.5,40.4,29.69,West,269,1.0,4.0,96,0.10,,,0.71,Wunderground v.1.15,2013-01-09 15:55:00,
2013-01-09 08:05:00,41.5,40.4,29.70,South,175,1.0,2.0,96,0.13,,,0.73,Wunderground v.1.15,2013-01-09 16:05:00,
2013-01-09 08:15:00,41.4,40.3,29.70,South,185,1.0,1.0,96,0.10,,,0.75,Wunderground v.1.15,2013-01-09 16:15:00,
2013-01-09 08:25:00,41.4,40.3,29.70,South,175,0.0,1.0,96,0.15,,,0.78,Wunderground v.1.15,2013-01-09 16:25:00,
2013-01-09 08:30:00,41.3,40.2,29.70,SSW,207,0.0,0.0,96,0.14,,,0.79,Wunderground v.1.15,2013-01-09 16:30:00,
2013-01-09 08:35:00,41.2,40.1,29.70,WNW,290,0.0,7.0,96,0.14,,,0.80,Wunderground v.1.15,2013-01-09 16:35:00,
2013-01-09 08:45:00,40.7,39.6,29.71,SSW,196,1.0,7.0,96,0.13,,,0.82,Wunderground v.1.15,2013-01-09 16:45:00,
2013-01-09 08:55:00,40.4,39.1,29.71,SE,139,1.0,7.0,95,0.13,,,0.85,Wunderground v.1.15,2013-01-09 16:55:00,
2013-01-09 09:05:00,40.0,39.0,29.72,SSE,160,3.0,5.0,96,0.14,,,0.87,Wunderground v.1.15,2013-01-09 17:05:00,
2013-01-09 09:15:00,39.4,38.4,29.71,South,180,3.0,3.0,96,0.09,,,0.88,Wunderground v.1.15,2013-01-09 17:15:00,
2013-01-09 09:25:00,39.1,38.1,29.71,SSE,166,3.0,5.0,96,0.07,,,0.89,Wunderground v.1.15,2013-01-09 17:25:00,
2013-01-09 09:35:00,38.6,37.6,29.72,SE,140,3.0,5.0,96,0.05,,,0.90,Wunderground v.1.15,2013-01-09 17:35:00,
2013-01-09 09:45:00,38.0,37.0,29.72,South,170,3.0,6.0,96,0.04,,,0.91,Wunderground v.1.15,2013-01-09 17:45:00,
2013-01-09 09:55:00,37.7,36.7,29.71,South,175,3.0,8.0,96,0.04,,,0.91,Wunderground v.1.15,2013-01-09 17:55:00,
2013-01-09 10:05:00,37.4,36.4,29.71,SSE,153,4.0,6.0,96,0.04,,,0.92,Wunderground v.1.15,2013-01-09 18:05:00,
2013-01-09 10:15:00,37.4,36.4,29.73,SE,139,3.0,4.0,96,0.00,,,0.92,Wunderground v.1.15,2013-01-09 18:15:00,
2013-01-09 10:25:00,37.4,36.4,29.73,ESE,109,3.0,4.0,96,0.00,,,0.92,Wunderground v.1.15,2013-01-09 18:25:00,
2013-01-09 10:35:00,37.3,36.3,29.74,SSE,149,3.0,9.0,96,0.00,,,0.92,Wunderground v.1.15,2013-01-09 18:35:00,
2013-01-09 10:40:00,37.3,36.3,29.74,South,170,3.0,3.0,96,0.00,,,0.92,Wunderground v.1.15,2013-01-09 18:40:00,
2013-01-09 10:45:00,37.3,36.3,29.74,ESE,122,2.0,9.0,96,0.00,,,0.92,Wunderground v.1.15,2013-01-09 18:45:00,
2013-01-09 10:50:00,37.4,36.4,29.74,SSW,210,2.0,9.0,96,0.00,,,0.92,Wunderground v.1.15,2013-01-09 18:50:00,
2013-01-09 10:55:00,37.5,36.5,29.74,ESE,116,1.0,9.0,96,0.00,,,0.92,Wunderground v.1.15,2013-01-09 18:55:00,
2013-01-09 11:00:00,37.6,36.8,29.73,South,175,2.0,2.0,97,0.00,,,0.92,Wunderground v.1.15,2013-01-09 19:00:00,
2013-01-09 11:05:00,37.7,36.9,29.74,SSW,201,3.0,3.0,97,0.00,,,0.92,Wunderground v.1.15,2013-01-09 19:05:00,
2013-01-09 11:15:00,37.9,37.1,29.74,SW,218,3.0,6.0,97,0.00,,,0.92,Wunderground v.1.15,2013-01-09 19:15:00,
2013-01-09 11:25:00,38.2,37.4,29.73,SSW,194,3.0,3.0,97,0.00,,,0.92,Wunderground v.1.15,2013-01-09 19:25:00,
2013-01-09 11:35:00,38.3,37.3,29.73,ESE,122,3.0,8.0,96,0.00,,,0.92,Wunderground v.1.15,2013-01-09 19:35:00,
2013-01-09 11:45:00,38.6,37.6,29.73,SSW,208,2.0,8.0,96,0.00,,,0.92,Wunderground v.1.15,2013-01-09 19:45:00,
2013-01-09 11:55:00,38.9,38.1,29.73,SW,231,2.0,8.0,97,0.00,,,0.92,Wunderground v.1.15,2013-01-09 19:55:00,
2013-01-09 12:05:00,39.3,38.5,29.73,South,175,2.0,4.0,97,0.00,,,0.92,Wunderground v.1.15,2013-01-09 20:05:00,
2013-01-09 12:15:00,39.6,38.6,29.72,SSE,163,2.0,2.0,96,0.00,,,0.92,Wunderground v.1.15,2013-01-09 20:15:00,
2013-01-09 12:25:00,39.8,38.8,29.73,ESE,108,2.0,2.0,96,0.00,,,0.92,Wunderground v.1.15,2013-01-09 20:25:00,
2013-01-09 12:30:00,40.0,39.0,29.72,ESE,116,2.0,2.0,96,0.00,,,0.92,Wunderground v.1.15,2013-01-09 20:30:00,
2013-01-09 12:40:00,40.2,39.2,29.72,SSE,151,2.0,2.0,96,0.00,,,0.92,Wunderground v.1.15,2013-01-09 20:40:00,
2013-01-09 12:45:00,40.3,39.3,29.72,SW,216,2.0,9.0,96,0.00,,,0.92,Wunderground v.1.15,2013-01-09 20:45:00,
2013-01-09 12:55:00,40.5,39.4,29.72,South,175,2.0,9.0,96,0.00,,,0.92,Wunderground v.1.15,2013-01-09 20:55:00,
2013-01-09 13:00:00,40.7,39.6,29.72,SW,221,1.0,2.0,96,0.00,,,0.92,Wunderground v.1.15,2013-01-09 21:00:00,
2013-01-09 13:05:00,40.9,39.8,29.73,SSW,193,0.0,2.0,96,0.00,,,0.92,Wunderground v.1.15,2013-01-09 21:05:00,
2013-01-09 13:15:00,41.2,40.1,29.73,SSW,198,1.0,2.0,96,0.00,,,0.92,Wunderground v.1.15,2013-01-09 21:15:00,
2013-01-09 13:25:00,41.9,40.8,29.74,West,262,1.0,1.0,96,0.00,,,0.92,Wunderground v.1.15,2013-01-09 21:25:00,
2013-01-09 13:35:00,42.5,40.9,29.74,SW,222,1.0,8.0,94,0.00,,,0.92,Wunderground v.1.15,2013-01-09 21:35:00,
2013-01-09 13:45:00,42.7,40.8,29.74,South,185,1.0,8.0,93,0.00,,,0.92,Wunderground v.1.15,2013-01-09 21:45:00,
2013-01-09 13:55:00,42.9,40.7,29.75,SW,218,1.0,8.0,92,0.00,,,0.92,Wunderground v.1.15,2013-01-09 21:55:00,
2013-01-09 14:05:00,43.0,40.8,29.75,SW,220,1.0,1.0,92,0.00,,,0.92,Wunderground v.1.15,2013-01-09 22:05:00,
2013-01-09 14:15:00,43.1,40.7,29.76,South,180,1.0,1.0,91,0.00,,,0.92,Wunderground v.1.15,2013-01-09 22:15:00,
2013-01-09 14:25:00,43.1,40.4,29.76,South,180,2.0,2.0,90,0.00,,,0.92,Wunderground v.1.15,2013-01-09 22:25:00,
2013-01-09 14:35:00,43.2,40.5,29.76,South,185,2.0,6.0,90,0.00,,,0.92,Wunderground v.1.15,2013-01-09 22:35:00,
2013-01-09 14:45:00,43.2,40.5,29.76,South,175,1.0,6.0,90,0.00,,,0.92,Wunderground v.1.15,2013-01-09 22:45:00,
2013-01-09 14:55:00,43.3,40.6,29.77,SSW,195,1.0,6.0,90,0.00,,,0.92,Wunderground v.1.15,2013-01-09 22:55:00,
2013-01-09 15:05:00,43.2,39.9,29.77,SSW,204,2.0,2.0,88,0.00,,,0.92,Wunderground v.1.15,2013-01-09 23:05:00,
2013-01-09 15:10:00,43.2,39.9,29.77,South,185,2.0,3.0,88,0.00,,,0.92,Wunderground v.1.15,2013-01-09 23:10:00,
2013-01-09 15:15:00,43.2,39.9,29.78,South,185,2.0,4.0,88,0.00,,,0.92,Wunderground v.1.15,2013-01-09 23:15:00,
2013-01-09 15:25:00,43.0,39.4,29.78,South,175,1.0,2.0,87,0.00,,,0.92,Wunderground v.1.15,2013-01-09 23:25:00,
2013-01-09 15:35:00,42.8,38.9,29.79,South,185,2.0,3.0,86,0.00,,,0.92,Wunderground v.1.15,2013-01-09 23:35:00,
2013-01-09 15:45:00,42.7,39.1,29.79,SSW,202,2.0,9.0,87,0.00,,,0.92,Wunderground v.1.15,2013-01-09 23:45:00,
2013-01-09 15:55:00,42.6,39.0,29.80,SW,223,1.0,9.0,87,0.00,,,0.92,Wunderground v.1.15,2013-01-09 23:55:00,
2013-01-09 16:05:00,42.5,39.2,29.80,SSW,192,1.0,3.0,88,0.00,,,0.92,Wunderground v.1.15,2013-01-10 00:05:00,
2013-01-09 16:15:00,42.4,38.8,29.81,SW,222,1.0,1.0,87,0.00,,,0.92,Wunderground v.1.15,2013-01-10 00:15:00,
2013-01-09 16:25:00,42.4,38.8,29.81,South,185,1.0,3.0,87,0.00,,,0.92,Wunderground v.1.15,2013-01-10 00:25:00,
2013-01-09 16:35:00,42.4,38.8,29.82,South,175,1.0,9.0,87,0.00,,,0.92,Wunderground v.1.15,2013-01-10 00:35:00,
2013-01-09 16:45:00,42.4,38.8,29.82,SSE,158,1.0,9.0,87,0.00,,,0.92,Wunderground v.1.15,2013-01-10 00:45:00,
2013-01-09 16:55:00,41.4,38.1,29.83,NW,308,0.0,9.0,88,0.00,,,0.92,Wunderground v.1.15,2013-01-10 00:55:00,
2013-01-09 17:05:00,40.5,37.8,29.83,NNE,30,0.0,0.0,90,0.00,,,0.92,Wunderground v.1.15,2013-01-10 01:05:00,
2013-01-09 17:15:00,39.9,37.2,29.83,NNE,27,0.0,0.0,90,0.00,,,0.92,Wunderground v.1.15,2013-01-10 01:15:00,
2013-01-09 17:25:00,39.3,36.6,29.84,NNE,27,0.0,0.0,90,0.00,,,0.92,Wunderground v.1.15,2013-01-10 01:25:00,
2013-01-09 17:35:00,38.8,36.4,29.83,WNW,287,0.0,5.0,91,0.00,,,0.92,Wunderground v.1.15,2013-01-10 01:35:00,
2013-01-09 17:45:00,38.7,36.6,29.84,ENE,68,0.0,5.0,92,0.00,,,0.92,Wunderground v.1.15,2013-01-10 01:45:00,
2013-01-09 17:55:00,38.6,36.5,29.84,NNW,347,0.0,5.0,92,0.00,,,0.92,Wunderground v.1.15,2013-01-10 01:55:00,
2013-01-09 18:05:00,38.6,36.5,29.85,NNE,31,0.0,0.0,92,0.00,,,0.92,Wunderground v.1.15,2013-01-10 02:05:00,
2013-01-09 18:15:00,38.5,36.4,29.85,NE,35,0.0,0.0,92,0.00,,,0.92,Wunderground v.1.15,2013-01-10 02:15:00,
2013-01-09 18:25:00,38.6,36.5,29.85,ESE,114,0.0,0.0,92,0.00,,,0.92,Wunderground v.1.15,2013-01-10 02:25:00,
2013-01-09 18:30:00,38.8,36.7,29.85,NW,308,0.0,0.0,92,0.00,,,0.92,Wunderground v.1.15,2013-01-10 02:30:00,
2013-01-09 18:35:00,39.0,36.6,29.86,NNE,14,0.0,2.0,91,0.00,,,0.92,Wunderground v.1.15,2013-01-10 02:35:00,
2013-01-09 18:45:00,39.7,37.0,29.86,NNE,26,0.0,2.0,90,0.00,,,0.92,Wunderground v.1.15,2013-01-10 02:45:00,
2013-01-09 18:55:00,40.0,37.3,29.86,NW,323,0.0,2.0,90,0.00,,,0.92,Wunderground v.1.15,2013-01-10 02:55:00,
2013-01-09 19:00:00,40.0,37.0,29.86,WNW,287,0.0,1.0,89,0.00,,,0.92,Wunderground v.1.15,2013-01-10 03:00:00,
2013-01-09 19:05:00,40.1,36.8,29.86,SSW,197,0.0,1.0,88,0.00,,,0.92,Wunderground v.1.15,2013-01-10 03:05:00,
2013-01-09 19:15:00,40.4,36.8,29.86,SSW,201,1.0,1.0,87,0.00,,,0.92,Wunderground v.1.15,2013-01-10 03:15:00,
2013-01-09 19:20:00,40.6,37.0,29.86,SSW,197,1.0,1.0,87,0.00,,,0.92,Wunderground v.1.15,2013-01-10 03:20:00,
2013-01-09 19:25:00,40.6,37.0,29.87,South,175,1.0,3.0,87,0.00,,,0.92,Wunderground v.1.15,2013-01-10 03:25:00,
2013-01-09 19:35:00,40.6,36.4,29.87,South,185,1.0,6.0,85,0.00,,,0.92,Wunderground v.1.15,2013-01-10 03:35:00,
2013-01-09 19:45:00,40.5,36.3,29.87,South,185,1.0,6.0,85,0.00,,,0.92,Wunderground v.1.15,2013-01-10 03:45:00,
2013-01-09 19:55:00,40.6,36.7,29.88,North,10,1.0,6.0,86,0.00,,,0.92,Wunderground v.1.15,2013-01-10 03:55:00,
2013-01-09 20:05:00,40.4,36.8,29.88,SSE,156,0.0,0.0,87,0.00,,,0.92,Wunderground v.1.15,2013-01-10 04:05:00,
2013-01-09 20:15:00,39.9,36.3,29.88,NNE,25,0.0,0.0,87,0.00,,,0.92,Wunderground v.1.15,2013-01-10 04:15:00,
2013-01-09 20:20:00,39.8,36.5,29.88,NNE,25,0.0,0.0,88,0.00,,,0.92,Wunderground v.1.15,2013-01-10 04:20:00,
2013-01-09 20:25:00,39.7,36.7,29.88,NNE,27,0.0,0.0,89,0.00,,,0.92,Wunderground v.1.15,2013-01-10 04:25:00,
2013-01-09 20:35:00,39.3,36.0,29.89,ENE,68,0.0,5.0,88,0.00,,,0.92,Wunderground v.1.15,2013-01-10 04:35:00,
2013-01-09 20:45:00,39.1,36.1,29.89,North,9,0.0,5.0,89,0.00,,,0.92,Wunderground v.1.15,2013-01-10 04:45:00,
2013-01-09 20:50:00,39.1,36.1,29.89,North,6,0.0,5.0,89,0.00,,,0.92,Wunderground v.1.15,2013-01-10 04:50:00,
2013-01-09 20:55:00,39.0,36.0,29.89,South,185,0.0,5.0,89,0.00,,,0.92,Wunderground v.1.15,2013-01-10 04:55:00,
2013-01-09 21:00:00,39.1,36.1,29.88,SSW,193,0.0,0.0,89,0.00,,,0.92,Wunderground v.1.15,2013-01-10 05:00:00,
2013-01-09 21:05:00,39.4,36.1,29.89,SW,216,0.0,1.0,88,0.00,,,0.92,Wunderground v.1.15,2013-01-10 05:05:00,
2013-01-09 21:10:00,39.6,36.0,29.89,South,175,1.0,1.0,87,0.00,,,0.92,Wunderground v.1.15,2013-01-10 05:10:00,
2013-01-09 21:15:00,39.7,35.9,29.89,South,185,1.0,1.0,86,0.00,,,0.92,Wunderground v.1.15,2013-01-10 05:15:00,
2013-01-09 21:25:00,39.8,35.4,29.90,SW,214,1.0,1.0,84,0.00,,,0.92,Wunderground v.1.15,2013-01-10 05:25:00,
2013-01-09 21:35:00,39.9,35.8,29.90,SE,125,1.0,2.0,85,0.00,,,0.92,Wunderground v.1.15,2013-01-10 05:35:00,
2013-01-09 21:45:00,39.9,35.5,29.90,SSE,158,1.0,3.0,84,0.00,,,0.92,Wunderground v.1.15,2013-01-10 05:45:00,
2013-01-09 21:50:00,39.9,35.8,29.90,South,185,1.0,1.0,85,0.00,,,0.92,Wunderground v.1.15,2013-01-10 05:50:00,
2013-01-09 21:55:00,39.8,35.7,29.90,ESE,113,0.0,3.0,85,0.00,,,0.92,Wunderground v.1.15,2013-01-10 05:55:00,
2013-01-09 22:05:00,39.8,35.7,29.91,SSW,197,0.0,0.0,85,0.00,,,0.92,Wunderground v.1.15,2013-01-10 06:05:00,
2013-01-09 22:15:00,39.9,36.1,29.91,SE,139,0.0,0.0,86,0.00,,,0.92,Wunderground v.1.15,2013-01-10 06:15:00,
2013-01-09 22:25:00,39.9,36.1,29.91,South,175,1.0,1.0,86,0.00,,,0.92,Wunderground v.1.15,2013-01-10 06:25:00,
2013-01-09 22:35:00,39.7,35.9,29.91,SSE,166,1.0,5.0,86,0.00,,,0.92,Wunderground v.1.15,2013-01-10 06:35:00,
2013-01-09 22:45:00,39.3,35.5,29.91,SSE,160,1.0,2.0,86,0.00,,,0.92,Wunderground v.1.15,2013-01-10 06:45:00,
2013-01-09 22:50:00,39.3,35.5,29.91,West,260,1.0,1.0,86,0.00,,,0.92,Wunderground v.1.15,2013-01-10 06:50:00,
2013-01-09 23:00:00,39.2,35.7,29.91,South,185,0.0,0.0,87,0.00,,,0.92,Wunderground v.1.15,2013-01-10 07:00:00,
2013-01-09 23:05:00,39.2,35.7,29.91,South,175,0.0,2.0,87,0.00,,,0.92,Wunderground v.1.15,2013-01-10 07:05:00,
2013-01-09 23:15:00,39.0,35.5,29.91,SW,224,0.0,0.0,87,0.00,,,0.92,Wunderground v.1.15,2013-01-10 07:15:00,
2013-01-09 23:25:00,38.9,35.4,29.91,SSW,200,0.0,0.0,87,0.00,,,0.92,Wunderground v.1.15,2013-01-10 07:25:00,
2013-01-09 23:35:00,38.8,35.3,29.91,WSW,248,0.0,4.0,87,0.00,,,0.92,Wunderground v.1.15,2013-01-10 07:35:00,
2013-01-09 23:45:00,38.7,35.2,29.92,South,175,0.0,4.0,87,0.00,,,0.92,Wunderground v.1.15,2013-01-10 07:45:00,
2013-01-09 23:55:00,38.6,35.4,29.92,WNW,283,0.0,4.0,88,0.00,,,0.92,Wunderground v.1.15,2013-01-10 07:55:00,